Time,TemperatureF,DewpointF,PressureIn,WindDirection,WindDirectionDegrees,WindSpeedMPH,WindSpeedGustMPH,Humidity,HourlyPrecipIn,Conditions,Clouds,dailyrainin,SolarRadiationWatts/m^2,SoftwareType,DateUTC
2013-02-14 00:00:00,64.0,57.7,30.05,NNE,14,6.0,6.0,80,0.00,CLR,,0.00,0.0,WeatherDisplay:10.37,2013-02-14 10:00:00,
2013-02-14 00:05:00,63.9,57.6,30.04,NE,51,8.1,8.1,80,0.00,CLR,,0.00,0.0,WeatherDisplay:10.37,2013-02-14 10:05:00,
2013-02-14 00:10:00,63.8,57.5,30.04,ENE,60,6.9,6.9,80,0.00,CLR,,0.00,0.0,WeatherDisplay:10.37,2013-02-14 10:10:00,
2013-02-14 00:15:00,63.7,57.4,30.04,NE,46,8.1,8.1,80,0.00,CLR,,0.00,0.0,WeatherDisplay:10.37,2013-02-14 10:15:00,
2013-02-14 00:20:00,63.6,57.3,30.04,NNE,24,4.6,4.6,80,0.00,CLR,,0.00,0.0,WeatherDisplay:10.37,2013-02-14 10:20:00,
2013-02-14 00:25:00,63.6,57.3,30.04,NE,49,9.2,9.2,80,0.00,CLR,,0.00,0.0,WeatherDisplay:10.37,2013-02-14 10:25:00,
2013-02-14 00:30:00,63.5,57.2,30.04,ENE,63,9.2,9.2,80,0.00,CLR,,0.00,0.0,WeatherDisplay:10.37,2013-02-14 10:30:00,
2013-02-14 00:35:00,63.5,57.2,30.04,NE,54,8.1,8.1,80,0.00,CLR,,0.00,0.0,WeatherDisplay:10.37,2013-02-14 10:35:00,
2013-02-14 00:40:00,63.5,56.9,30.04,ENE,65,6.9,6.9,79,0.00,CLR,,0.00,0.0,WeatherDisplay:10.37,2013-02-14 10:40:00,
2013-02-14 00:45:00,63.4,57.1,30.04,NNE,24,10.4,10.4,80,0.00,CLR,,0.00,0.0,WeatherDisplay:10.37,2013-02-14 10:45:00,
2013-02-14 00:50:00,63.4,57.1,30.04,ENE,57,6.9,6.9,80,0.00,CLR,,0.00,0.0,WeatherDisplay:10.37,2013-02-14 10:50:00,
2013-02-14 00:55:00,63.3,57.0,30.04,NNE,32,9.2,9.2,80,0.00,CLR,,0.00,0.0,WeatherDisplay:10.37,2013-02-14 10:55:00,
2013-02-14 01:00:00,63.3,57.0,30.04,North,360,8.1,8.1,80,0.00,CLR,,0.00,0.0,WeatherDisplay:10.37,2013-02-14 11:00:00,
2013-02-14 01:05:00,63.4,57.1,30.03,ENE,67,6.9,6.9,80,0.00,CLR,,0.00,0.0,WeatherDisplay:10.37,2013-02-14 11:05:00,
2013-02-14 01:10:00,63.5,57.2,30.03,NNW,344,11.5,11.5,80,0.00,CLR,,0.00,0.0,WeatherDisplay:10.37,2013-02-14 11:10:00,
2013-02-14 01:15:00,63.6,57.7,30.03,NNE,23,9.2,9.2,81,0.00,CLR,,0.00,0.0,WeatherDisplay:10.37,2013-02-14 11:15:00,
2013-02-14 01:20:00,63.7,57.4,30.03,ENE,60,5.8,5.8,80,0.00,CLR,,0.00,0.0,WeatherDisplay:10.37,2013-02-14 11:20:00,
2013-02-14 01:25:00,63.8,57.5,30.03,NNW,345,7.0,7.0,80,0.00,CLR,,0.00,0.0,WeatherDisplay:10.37,2013-02-14 11:25:00,
2013-02-14 01:30:00,63.9,57.6,30.03,NNE,33,4.6,4.7,80,0.00,CLR,,0.00,0.0,WeatherDisplay:10.37,2013-02-14 11:30:00,
2013-02-14 01:35:00,64.0,57.7,30.03,NE,40,9.2,9.2,80,0.00,CLR,,0.00,0.0,WeatherDisplay:10.37,2013-02-14 11:35:00,
2013-02-14 01:40:00,64.1,57.5,30.03,NNW,348,8.1,8.1,79,0.00,CLR,,0.00,0.0,WeatherDisplay:10.37,2013-02-14 11:40:00,
2013-02-14 01:45:00,64.2,57.5,30.02,NNE,13,8.1,8.1,79,0.00,CLR,,0.00,0.0,WeatherDisplay:10.37,2013-02-14 11:45:00,
2013-02-14 01:50:00,64.2,57.5,30.02,North,5,9.2,9.2,79,0.00,CLR,,0.00,0.0,WeatherDisplay:10.37,2013-02-14 11:50:00,
2013-02-14 01:55:00,64.2,57.5,30.02,NNE,27,9.2,9.2,79,0.00,CLR,,0.00,0.0,WeatherDisplay:10.37,2013-02-14 11:55:00,
2013-02-14 02:00:00,64.1,57.5,30.02,North,5,6.9,6.9,79,0.00,CLR,,0.00,0.0,WeatherDisplay:10.37,2013-02-14 12:00:00,
2013-02-14 02:05:00,64.1,57.5,30.02,ENE,59,8.1,8.1,79,0.00,CLR,,0.00,0.0,WeatherDisplay:10.37,2013-02-14 12:05:00,
2013-02-14 02:10:00,64.1,57.5,30.01,ENE,71,6.9,6.9,79,0.00,CLR,,0.00,0.0,WeatherDisplay:10.37,2013-02-14 12:10:00,
2013-02-14 02:15:00,64.1,57.5,30.01,NE,36,8.1,8.1,79,0.00,CLR,,0.00,0.0,WeatherDisplay:10.37,2013-02-14 12:15:00,
2013-02-14 02:20:00,64.0,57.4,30.01,NNE,16,6.0,6.0,79,0.00,CLR,,0.00,0.0,WeatherDisplay:10.37,2013-02-14 12:20:00,
2013-02-14 02:25:00,63.9,57.3,30.01,North,355,9.2,9.2,79,0.00,CLR,,0.00,0.0,WeatherDisplay:10.37,2013-02-14 12:25:00,
2013-02-14 02:30:00,63.9,57.3,30.01,ENE,70,5.0,5.0,79,0.00,CLR,,0.00,0.0,WeatherDisplay:10.37,2013-02-14 12:30:00,
2013-02-14 02:35:00,63.8,57.2,30.01,NE,49,4.6,4.6,79,0.00,CLR,,0.00,0.0,WeatherDisplay:10.37,2013-02-14 12:35:00,
2013-02-14 02:40:00,63.7,56.7,30.01,NNE,20,8.1,8.1,78,0.00,CLR,,0.00,0.0,WeatherDisplay:10.37,2013-02-14 12:40:00,
2013-02-14 02:45:00,63.7,56.7,30.01,NE,35,6.9,6.9,78,0.00,CLR,,0.00,0.0,WeatherDisplay:10.37,2013-02-14 12:45:00,
2013-02-14 02:50:00,63.7,56.7,30.00,NE,35,8.1,8.1,78,0.00,CLR,,0.00,0.0,WeatherDisplay:10.37,2013-02-14 12:50:00,
2013-02-14 02:55:00,63.7,56.4,30.00,ENE,66,4.6,4.6,77,0.00,CLR,,0.00,0.0,WeatherDisplay:10.37,2013-02-14 12:55:00,
2013-02-14 03:00:00,63.6,56.3,30.00,NNE,24,10.0,10.0,77,0.00,CLR,,0.00,0.0,WeatherDisplay:10.37,2013-02-14 13:00:00,
2013-02-14 03:05:00,63.6,56.3,30.00,ENE,62,6.9,6.9,77,0.00,CLR,,0.00,0.0,WeatherDisplay:10.37,2013-02-14 13:05:00,
2013-02-14 03:10:00,63.6,55.9,30.00,ENE,65,6.9,6.9,76,0.00,CLR,,0.00,0.0,WeatherDisplay:10.37,2013-02-14 13:10:00,
2013-02-14 03:15:00,63.5,55.8,30.00,NNE,15,5.0,5.0,76,0.00,CLR,,0.00,0.0,WeatherDisplay:10.37,2013-02-14 13:15:00,
2013-02-14 03:20:00,63.5,55.8,30.00,NE,34,5.8,5.8,76,0.00,CLR,,0.00,0.0,WeatherDisplay:10.37,2013-02-14 13:20:00,
2013-02-14 03:25:00,63.5,55.4,30.00,ENE,64,8.1,8.1,75,0.00,CLR,,0.00,0.0,WeatherDisplay:10.37,2013-02-14 13:25:00,
2013-02-14 03:30:00,63.5,55.4,30.00,ENE,74,4.6,4.6,75,0.00,CLR,,0.00,0.0,WeatherDisplay:10.37,2013-02-14 13:30:00,
2013-02-14 03:35:00,63.4,55.3,30.00,NE,36,5.8,5.8,75,0.00,CLR,,0.00,0.0,WeatherDisplay:10.37,2013-02-14 13:35:00,
2013-02-14 03:40:00,63.4,55.3,30.00,ENE,62,5.8,5.8,75,0.00,CLR,,0.00,0.0,WeatherDisplay:10.37,2013-02-14 13:40:00,
2013-02-14 03:45:00,63.4,55.0,30.00,NNE,24,10.4,10.4,74,0.00,CLR,,0.00,0.0,WeatherDisplay:10.37,2013-02-14 13:45:00,
2013-02-14 03:50:00,63.4,55.3,30.00,North,360,4.6,4.6,75,0.00,CLR,,0.00,0.0,WeatherDisplay:10.37,2013-02-14 13:50:00,
2013-02-14 03:55:00,63.4,55.0,30.00,ENE,72,4.6,4.6,74,0.00,CLR,,0.00,0.0,WeatherDisplay:10.37,2013-02-14 13:55:00,
2013-02-14 04:00:00,63.3,54.9,30.00,North,355,5.8,5.8,74,0.00,CLR,,0.00,0.0,WeatherDisplay:10.37,2013-02-14 14:00:00,
2013-02-14 04:05:00,63.2,54.8,30.00,NE,50,3.5,3.5,74,0.00,CLR,,0.00,0.0,WeatherDisplay:10.37,2013-02-14 14:05:00,
2013-02-14 04:10:00,63.2,54.8,30.00,NE,36,5.8,5.8,74,0.00,CLR,,0.00,0.0,WeatherDisplay:10.37,2013-02-14 14:10:00,
2013-02-14 04:15:00,63.1,54.7,30.00,NE,36,4.6,4.6,74,0.00,CLR,,0.00,0.0,WeatherDisplay:10.37,2013-02-14 14:15:00,
2013-02-14 04:20:00,63.1,54.7,30.00,North,5,6.9,6.9,74,0.00,CLR,,0.00,0.0,WeatherDisplay:10.37,2013-02-14 14:20:00,
2013-02-14 04:25:00,63.1,54.7,30.00,ENE,72,3.5,3.5,74,0.00,CLR,,0.00,0.0,WeatherDisplay:10.37,2013-02-14 14:25:00,
2013-02-14 04:30:00,63.1,54.7,30.01,NE,44,6.9,6.9,74,0.00,CLR,,0.00,0.0,WeatherDisplay:10.37,2013-02-14 14:30:00,
2013-02-14 04:35:00,63.1,54.7,30.01,NE,40,8.1,8.1,74,0.00,CLR,,0.00,0.0,WeatherDisplay:10.37,2013-02-14 14:35:00,
2013-02-14 04:40:00,63.1,54.7,30.01,North,5,4.0,4.0,74,0.00,CLR,,0.00,0.0,WeatherDisplay:10.37,2013-02-14 14:40:00,
2013-02-14 04:45:00,63.1,54.7,30.01,North,5,4.6,4.6,74,0.00,CLR,,0.00,0.0,WeatherDisplay:10.37,2013-02-14 14:45:00,
2013-02-14 04:50:00,62.9,54.5,30.01,East,82,4.6,4.6,74,0.00,CLR,,0.00,0.0,WeatherDisplay:10.37,2013-02-14 14:50:00,
2013-02-14 04:55:00,62.9,54.5,30.00,ENE,59,9.2,9.2,74,0.00,CLR,,0.00,0.0,WeatherDisplay:10.37,2013-02-14 14:55:00,
2013-02-14 05:00:00,62.9,54.9,30.00,ENE,66,8.1,8.1,75,0.00,CLR,,0.00,0.0,WeatherDisplay:10.37,2013-02-14 15:00:00,
2013-02-14 05:05:00,62.9,54.9,30.00,NNE,24,3.5,3.5,75,0.00,CLR,,0.00,0.0,WeatherDisplay:10.37,2013-02-14 15:05:00,
2013-02-14 05:10:00,63.0,54.9,30.00,East,92,8.1,8.1,75,0.00,CLR,,0.00,0.0,WeatherDisplay:10.37,2013-02-14 15:10:00,
2013-02-14 05:15:00,63.2,55.1,30.00,NE,34,9.2,9.2,75,0.00,CLR,,0.00,0.0,WeatherDisplay:10.37,2013-02-14 15:15:00,
2013-02-14 05:20:00,63.2,55.1,30.01,NNW,337,8.0,8.0,75,0.00,CLR,,0.00,0.0,WeatherDisplay:10.37,2013-02-14 15:20:00,
2013-02-14 05:25:00,63.3,55.2,30.01,NNE,30,6.9,6.9,75,0.00,CLR,,0.00,0.0,WeatherDisplay:10.37,2013-02-14 15:25:00,
2013-02-14 05:30:00,63.3,54.9,30.00,ENE,61,7.0,7.0,74,0.00,CLR,,0.00,0.0,WeatherDisplay:10.37,2013-02-14 15:30:00,
2013-02-14 05:35:00,63.3,54.9,30.00,NE,35,4.6,4.6,74,0.00,CLR,,0.00,0.0,WeatherDisplay:10.37,2013-02-14 15:35:00,
2013-02-14 05:40:00,63.4,55.0,30.01,NE,51,7.0,7.0,74,0.00,CLR,,0.00,0.0,WeatherDisplay:10.37,2013-02-14 15:40:00,
2013-02-14 05:45:00,63.4,55.0,30.01,ENE,70,6.9,6.9,74,0.00,CLR,,0.00,0.0,WeatherDisplay:10.37,2013-02-14 15:45:00,
2013-02-14 05:50:00,63.4,55.0,30.01,NE,42,5.8,5.8,74,0.00,CLR,,0.00,0.0,WeatherDisplay:10.37,2013-02-14 15:50:00,
2013-02-14 05:55:00,63.3,54.9,30.01,East,81,3.5,3.5,74,0.00,CLR,,0.00,0.0,WeatherDisplay:10.37,2013-02-14 15:55:00,
2013-02-14 06:00:00,63.3,55.2,30.01,NNE,28,6.9,6.9,75,0.00,CLR,,0.00,0.0,WeatherDisplay:10.37,2013-02-14 16:00:00,
2013-02-14 06:05:00,63.3,55.6,30.01,NNE,15,5.8,5.8,76,0.00,CLR,,0.00,0.0,WeatherDisplay:10.37,2013-02-14 16:05:00,
2013-02-14 06:10:00,63.4,55.7,30.01,North,5,8.0,8.0,76,0.00,CLR,,0.00,0.0,WeatherDisplay:10.37,2013-02-14 16:10:00,
2013-02-14 06:15:00,63.4,56.1,30.02,NE,55,8.1,8.1,77,0.00,CLR,,0.00,0.0,WeatherDisplay:10.37,2013-02-14 16:15:00,
2013-02-14 06:20:00,63.4,55.7,30.02,NNE,14,6.9,6.9,76,0.00,CLR,,0.00,0.0,WeatherDisplay:10.37,2013-02-14 16:20:00,
2013-02-14 06:25:00,63.5,56.2,30.02,NE,36,6.9,6.9,77,0.00,CLR,,0.00,0.0,WeatherDisplay:10.37,2013-02-14 16:25:00,
2013-02-14 06:30:00,63.5,56.2,30.02,NNE,26,9.2,9.2,77,0.00,CLR,,0.00,0.0,WeatherDisplay:10.37,2013-02-14 16:30:00,
2013-02-14 06:35:00,63.6,56.3,30.02,North,355,9.2,9.2,77,0.00,CLR,,0.00,0.0,WeatherDisplay:10.37,2013-02-14 16:35:00,
2013-02-14 06:40:00,63.6,56.3,30.02,NNE,26,4.6,4.6,77,0.00,CLR,,0.00,0.0,WeatherDisplay:10.37,2013-02-14 16:40:00,
2013-02-14 06:45:00,63.6,56.3,30.02,NNE,24,6.9,6.9,77,0.00,CLR,,0.00,0.0,WeatherDisplay:10.37,2013-02-14 16:45:00,
2013-02-14 06:50:00,63.6,56.3,30.02,ENE,60,6.9,6.9,77,0.00,CLR,,0.00,0.0,WeatherDisplay:10.37,2013-02-14 16:50:00,
2013-02-14 06:55:00,63.5,56.2,30.02,NE,40,4.6,4.6,77,0.00,CLR,,0.00,0.0,WeatherDisplay:10.37,2013-02-14 16:55:00,
2013-02-14 07:00:00,63.5,56.2,30.03,North,11,6.9,6.9,77,0.00,CLR,,0.00,0.0,WeatherDisplay:10.37,2013-02-14 17:00:00,
2013-02-14 07:05:00,63.4,56.4,30.03,North,5,6.9,6.9,78,0.00,CLR,,0.00,5.0,WeatherDisplay:10.37,2013-02-14 17:05:00,
2013-02-14 07:10:00,63.4,56.4,30.02,NE,34,6.9,6.9,78,0.00,SCT,,0.00,7.0,WeatherDisplay:10.37,2013-02-14 17:10:00,
2013-02-14 07:15:00,63.3,56.3,30.03,ENE,66,9.2,9.2,78,0.00,BKN,,0.00,9.0,WeatherDisplay:10.37,2013-02-14 17:15:00,
2013-02-14 07:20:00,63.3,56.3,30.03,NNW,344,8.1,8.1,78,0.00,CLR,,0.00,11.0,WeatherDisplay:10.37,2013-02-14 17:20:00,
2013-02-14 07:25:00,63.3,56.3,30.03,NE,44,5.8,5.8,78,0.00,CLR,,0.00,14.0,WeatherDisplay:10.37,2013-02-14 17:25:00,
2013-02-14 07:30:00,63.2,56.2,30.03,East,83,8.1,8.1,78,0.00,CLR,,0.00,14.0,WeatherDisplay:10.37,2013-02-14 17:30:00,
2013-02-14 07:35:00,63.2,56.2,30.03,NE,36,4.6,4.6,78,0.00,BKN,,0.00,28.0,WeatherDisplay:10.37,2013-02-14 17:35:00,
2013-02-14 07:40:00,63.3,56.3,30.03,NNE,27,6.9,6.9,78,0.00,BKN,,0.00,40.0,WeatherDisplay:10.37,2013-02-14 17:40:00,
2013-02-14 07:45:00,63.4,56.8,30.04,NE,36,4.0,4.0,79,0.00,BKN,,0.00,46.0,WeatherDisplay:10.37,2013-02-14 17:45:00,
2013-02-14 07:50:00,63.5,56.9,30.04,ENE,72,11.5,11.5,79,0.00,BKN,,0.00,51.0,WeatherDisplay:10.37,2013-02-14 17:50:00,
2013-02-14 07:55:00,63.7,56.7,30.04,ENE,63,4.6,4.6,78,0.00,SCT,,0.00,74.0,WeatherDisplay:10.37,2013-02-14 17:55:00,
2013-02-14 08:00:00,64.0,57.0,30.04,NNE,14,9.2,9.2,78,0.00,SCT,,0.00,176.0,WeatherDisplay:10.37,2013-02-14 18:00:00,
2013-02-14 08:05:00,64.3,57.3,30.04,NNE,22,5.8,5.8,78,0.00,SCT,,0.00,72.0,WeatherDisplay:10.37,2013-02-14 18:05:00,
2013-02-14 08:10:00,64.5,57.1,30.04,NNE,13,10.4,10.4,77,0.00,CLR,,0.00,193.0,WeatherDisplay:10.37,2013-02-14 18:10:00,
2013-02-14 08:15:00,64.8,57.4,30.05,East,84,9.0,9.0,77,0.00,SCT,,0.00,109.0,WeatherDisplay:10.37,2013-02-14 18:15:00,
2013-02-14 08:20:00,64.9,57.5,30.05,North,349,10.4,10.4,77,0.00,SCT,,0.00,118.0,WeatherDisplay:10.37,2013-02-14 18:20:00,
2013-02-14 08:25:00,65.0,57.6,30.05,NE,54,9.2,9.2,77,0.00,SCT,,0.00,158.0,WeatherDisplay:10.37,2013-02-14 18:25:00,
2013-02-14 08:30:00,65.2,57.8,30.05,NE,49,4.0,4.2,77,0.00,CLR,,0.00,199.0,WeatherDisplay:10.37,2013-02-14 18:30:00,
2013-02-14 08:35:00,65.6,58.2,30.05,NE,55,9.2,9.2,77,0.00,CLR,,0.00,258.0,WeatherDisplay:10.37,2013-02-14 18:35:00,
2013-02-14 08:40:00,65.9,58.1,30.05,ENE,78,8.1,8.1,76,0.00,CLR,,0.00,352.0,WeatherDisplay:10.37,2013-02-14 18:40:00,
2013-02-14 08:45:00,66.3,58.1,30.06,NNW,346,9.2,9.2,75,0.00,CLR,,0.00,346.0,WeatherDisplay:10.37,2013-02-14 18:45:00,
2013-02-14 08:50:00,66.6,58.4,30.06,NE,52,5.0,5.0,75,0.00,CLR,,0.00,357.0,WeatherDisplay:10.37,2013-02-14 18:50:00,
2013-02-14 08:55:00,67.0,58.4,30.06,North,11,4.6,4.6,74,0.00,CLR,,0.00,380.0,WeatherDisplay:10.37,2013-02-14 18:55:00,
2013-02-14 09:00:00,67.4,58.8,30.06,ENE,59,5.8,5.8,74,0.00,CLR,,0.00,415.0,WeatherDisplay:10.37,2013-02-14 19:00:00,
2013-02-14 09:05:00,67.6,58.6,30.06,NNE,22,6.9,6.9,73,0.00,CLR,,0.00,320.0,WeatherDisplay:10.37,2013-02-14 19:05:00,
2013-02-14 09:10:00,67.7,58.7,30.06,NNE,24,4.6,5.0,73,0.00,CLR,,0.00,396.0,WeatherDisplay:10.37,2013-02-14 19:10:00,
2013-02-14 09:15:00,67.8,58.4,30.06,NE,53,3.5,3.5,72,0.00,CLR,,0.00,385.0,WeatherDisplay:10.37,2013-02-14 19:15:00,
2013-02-14 09:20:00,67.9,58.1,30.06,East,84,5.0,5.0,71,0.00,SCT,,0.00,202.0,WeatherDisplay:10.37,2013-02-14 19:20:00,
2013-02-14 09:25:00,68.0,58.2,30.06,ENE,61,6.9,6.9,71,0.00,BKN,,0.00,200.0,WeatherDisplay:10.37,2013-02-14 19:25:00,
2013-02-14 09:30:00,67.9,58.1,30.06,East,86,6.9,6.9,71,0.00,BKN,,0.00,141.0,WeatherDisplay:10.37,2013-02-14 19:30:00,
2013-02-14 09:35:00,67.7,58.0,30.06,NE,39,7.0,7.0,71,0.00,OVC,,0.00,91.0,WeatherDisplay:10.37,2013-02-14 19:35:00,
2013-02-14 09:40:00,67.2,57.5,30.06,NE,51,6.9,6.9,71,0.00,OVC,,0.00,139.0,WeatherDisplay:10.37,2013-02-14 19:40:00,
2013-02-14 09:45:00,67.0,57.7,30.06,ENE,58,8.1,8.1,72,0.00,OVC,,0.00,125.0,WeatherDisplay:10.37,2013-02-14 19:45:00,
2013-02-14 09:50:00,67.0,58.1,30.06,NNE,17,6.9,6.9,73,0.00,CLR,,0.00,596.0,WeatherDisplay:10.37,2013-02-14 19:50:00,
2013-02-14 09:55:00,67.6,58.2,30.06,ENE,60,9.2,9.2,72,0.00,CLR,,0.00,638.0,WeatherDisplay:10.37,2013-02-14 19:55:00,
2013-02-14 10:00:00,68.1,58.3,30.07,ESE,119,8.0,8.0,71,0.00,CLR,,0.00,650.0,WeatherDisplay:10.37,2013-02-14 20:00:00,
2013-02-14 10:05:00,68.5,58.3,30.07,ENE,64,6.9,6.9,70,0.00,OVC,,0.00,151.0,WeatherDisplay:10.37,2013-02-14 20:05:00,
2013-02-14 10:10:00,68.6,58.4,30.06,ENE,72,7.0,7.0,70,0.00,SCT,,0.00,341.0,WeatherDisplay:10.37,2013-02-14 20:10:00,
2013-02-14 10:15:00,69.1,58.5,30.06,ENE,78,7.0,7.0,69,0.00,CLR,,0.00,279.0,WeatherDisplay:10.37,2013-02-14 20:15:00,
2013-02-14 10:20:00,69.6,58.6,30.06,East,86,6.9,6.9,68,0.00,CLR,,0.00,524.0,WeatherDisplay:10.37,2013-02-14 20:20:00,
2013-02-14 10:25:00,69.7,58.3,30.06,ENE,61,11.5,11.5,67,0.00,FEW,,0.00,318.0,WeatherDisplay:10.37,2013-02-14 20:25:00,
2013-02-14 10:30:00,69.7,58.3,30.05,NE,44,6.9,6.9,67,0.00,BKN,,0.00,281.0,WeatherDisplay:10.37,2013-02-14 20:30:00,
2013-02-14 10:35:00,69.7,58.7,30.05,NE,46,7.0,7.0,68,0.00,BKN,,0.00,313.0,WeatherDisplay:10.37,2013-02-14 20:35:00,
2013-02-14 10:40:00,69.6,58.2,30.05,NE,34,6.9,6.9,67,0.00,BKN,,0.00,287.0,WeatherDisplay:10.37,2013-02-14 20:40:00,
2013-02-14 10:45:00,69.6,58.6,30.05,ENE,73,6.9,6.9,68,0.00,BKN,,0.00,218.0,WeatherDisplay:10.37,2013-02-14 20:45:00,
2013-02-14 10:50:00,69.7,58.7,30.04,ENE,67,8.1,8.1,68,0.00,CLR,,0.00,861.0,WeatherDisplay:10.37,2013-02-14 20:50:00,
2013-02-14 10:55:00,70.2,58.7,30.05,East,88,11.5,11.5,67,0.00,CLR,,0.00,824.0,WeatherDisplay:10.37,2013-02-14 20:55:00,
2013-02-14 11:00:00,70.7,59.2,30.05,SE,131,5.8,5.8,67,0.00,BKN,,0.00,257.0,WeatherDisplay:10.37,2013-02-14 21:00:00,
2013-02-14 11:05:00,71.0,59.1,30.05,ENE,69,8.1,8.1,66,0.00,BKN,,0.00,315.0,WeatherDisplay:10.37,2013-02-14 21:05:00,
2013-02-14 11:10:00,71.0,59.1,30.05,NNE,33,11.5,11.5,66,0.00,BKN,,0.00,332.0,WeatherDisplay:10.37,2013-02-14 21:10:00,
2013-02-14 11:15:00,71.1,58.7,30.04,East,95,9.2,9.2,65,0.00,FEW,,0.00,466.0,WeatherDisplay:10.37,2013-02-14 21:15:00,
2013-02-14 11:20:00,70.9,58.5,30.04,NE,53,9.2,9.2,65,0.00,BKN,,0.00,327.0,WeatherDisplay:10.37,2013-02-14 21:20:00,
2013-02-14 11:25:00,71.0,58.6,30.04,ENE,75,9.2,9.2,65,0.00,BKN,,0.00,348.0,WeatherDisplay:10.37,2013-02-14 21:25:00,
2013-02-14 11:30:00,70.8,58.9,30.04,North,11,8.1,8.1,66,0.00,BKN,,0.00,348.0,WeatherDisplay:10.37,2013-02-14 21:30:00,
2013-02-14 11:35:00,70.8,58.9,30.03,North,11,8.1,8.1,66,0.00,BKN,,0.00,265.0,WeatherDisplay:10.37,2013-02-14 21:35:00,
2013-02-14 11:40:00,70.5,58.6,30.04,NE,34,5.8,5.8,66,0.00,BKN,,0.00,387.0,WeatherDisplay:10.37,2013-02-14 21:40:00,
2013-02-14 11:45:00,70.5,59.0,30.03,NNE,33,10.4,10.4,67,0.00,BKN,,0.00,251.0,WeatherDisplay:10.37,2013-02-14 21:45:00,
2013-02-14 11:50:00,70.4,58.9,30.03,ENE,66,8.1,8.1,67,0.00,BKN,,0.00,255.0,WeatherDisplay:10.37,2013-02-14 21:50:00,
2013-02-14 11:55:00,70.5,59.0,30.03,ENE,58,4.6,4.6,67,0.00,BKN,,0.00,292.0,WeatherDisplay:10.37,2013-02-14 21:55:00,
2013-02-14 12:00:00,70.6,58.7,30.03,North,5,5.8,5.8,66,0.00,BKN,,0.00,260.0,WeatherDisplay:10.37,2013-02-14 22:00:00,
2013-02-14 12:05:00,70.6,58.7,30.02,ENE,65,8.1,8.1,66,0.00,BKN,,0.00,265.0,WeatherDisplay:10.37,2013-02-14 22:05:00,
2013-02-14 12:10:00,70.5,58.6,30.02,NNE,24,4.6,4.6,66,0.00,BKN,,0.00,272.0,WeatherDisplay:10.37,2013-02-14 22:10:00,
2013-02-14 12:15:00,71.0,59.1,30.02,ENE,78,11.5,11.5,66,0.00,CLR,,0.00,939.0,WeatherDisplay:10.37,2013-02-14 22:15:00,
2013-02-14 12:20:00,71.6,59.2,30.02,East,90,9.2,9.2,65,0.00,BKN,,0.00,315.0,WeatherDisplay:10.37,2013-02-14 22:20:00,
2013-02-14 12:25:00,71.8,59.4,30.02,East,96,7.0,7.0,65,0.00,CLR,,0.00,717.0,WeatherDisplay:10.37,2013-02-14 22:25:00,
2013-02-14 12:30:00,71.9,59.1,30.02,ENE,78,10.4,10.4,64,0.00,CLR,,0.00,714.0,WeatherDisplay:10.37,2013-02-14 22:30:00,
2013-02-14 12:35:00,72.0,59.2,30.02,NE,45,9.2,9.2,64,0.00,BKN,,0.00,313.0,WeatherDisplay:10.37,2013-02-14 22:35:00,
2013-02-14 12:40:00,71.8,58.5,30.01,NE,38,5.8,5.8,63,0.00,BKN,,0.00,267.0,WeatherDisplay:10.37,2013-02-14 22:40:00,
2013-02-14 12:45:00,71.6,58.8,30.01,North,360,9.2,9.2,64,0.00,OVC,,0.00,185.0,WeatherDisplay:10.37,2013-02-14 22:45:00,
2013-02-14 12:50:00,71.5,58.7,30.01,NNW,346,8.1,8.1,64,0.00,OVC,,0.00,236.0,WeatherDisplay:10.37,2013-02-14 22:50:00,
2013-02-14 12:55:00,71.9,59.1,30.01,East,88,8.1,8.1,64,0.00,CLR,,0.00,979.0,WeatherDisplay:10.37,2013-02-14 22:55:00,
2013-02-14 13:00:00,72.6,58.8,30.00,ENE,65,10.0,10.0,62,0.00,SCT,,0.00,468.0,WeatherDisplay:10.37,2013-02-14 23:00:00,
2013-02-14 13:05:00,72.8,58.1,30.00,East,96,15.0,15.0,60,0.00,OVC,,0.00,237.0,WeatherDisplay:10.37,2013-02-14 23:05:00,
2013-02-14 13:10:00,73.0,58.8,29.99,ENE,77,7.0,7.0,61,0.00,CLR,,0.00,951.0,WeatherDisplay:10.37,2013-02-14 23:10:00,
2013-02-14 13:15:00,73.5,58.3,30.00,ENE,67,8.1,8.1,59,0.00,CLR,,0.00,954.0,WeatherDisplay:10.37,2013-02-14 23:15:00,
2013-02-14 13:20:00,73.7,58.9,29.99,NE,54,9.2,9.2,60,0.00,CLR,,0.00,969.0,WeatherDisplay:10.37,2013-02-14 23:20:00,
2013-02-14 13:25:00,73.8,58.6,29.99,NNE,32,10.4,10.4,59,0.00,CLR,,0.00,951.0,WeatherDisplay:10.37,2013-02-14 23:25:00,
2013-02-14 13:30:00,73.9,59.1,29.99,North,360,6.9,6.9,60,0.00,OVC,,0.00,301.0,WeatherDisplay:10.37,2013-02-14 23:30:00,
2013-02-14 13:35:00,73.9,59.1,29.98,NE,34,10.4,10.4,60,0.00,CLR,,0.00,1051.0,WeatherDisplay:10.37,2013-02-14 23:35:00,
2013-02-14 13:40:00,74.0,59.2,29.98,East,98,7.0,7.0,60,0.00,CLR,,0.00,884.0,WeatherDisplay:10.37,2013-02-14 23:40:00,
2013-02-14 13:45:00,74.2,58.9,29.98,ESE,109,4.6,4.6,59,0.00,CLR,,0.00,930.0,WeatherDisplay:10.37,2013-02-14 23:45:00,
2013-02-14 13:50:00,74.0,58.8,29.98,ESE,116,7.0,7.0,59,0.00,CLR,,0.00,946.0,WeatherDisplay:10.37,2013-02-14 23:50:00,
2013-02-14 13:55:00,74.2,58.5,29.98,ENE,71,10.4,10.4,58,0.00,CLR,,0.00,949.0,WeatherDisplay:10.37,2013-02-14 23:55:00,
2013-02-14 14:00:00,74.5,58.8,29.98,ENE,62,11.5,11.5,58,0.00,CLR,,0.00,974.0,WeatherDisplay:10.37,2013-02-15 00:00:00,
2013-02-14 14:05:00,74.8,59.0,29.98,NE,39,11.5,11.5,58,0.00,CLR,,0.00,1034.0,WeatherDisplay:10.37,2013-02-15 00:05:00,
2013-02-14 14:10:00,75.2,59.4,29.98,ESE,103,8.1,8.1,58,0.00,CLR,,0.00,1051.0,WeatherDisplay:10.37,2013-02-15 00:10:00,
2013-02-14 14:15:00,75.1,58.8,29.97,North,5,17.3,17.3,57,0.00,CLR,,0.00,1148.0,WeatherDisplay:10.37,2013-02-15 00:15:00,
2013-02-14 14:20:00,74.9,58.6,29.98,ENE,73,9.2,9.2,57,0.00,SCT,,0.00,413.0,WeatherDisplay:10.37,2013-02-15 00:20:00,
2013-02-14 14:25:00,74.4,58.7,29.97,NNE,29,12.7,12.7,58,0.00,CLR,,0.00,1039.0,WeatherDisplay:10.37,2013-02-15 00:25:00,
2013-02-14 14:30:00,74.3,59.0,29.97,East,84,10.4,10.4,59,0.00,CLR,,0.00,1039.0,WeatherDisplay:10.37,2013-02-15 00:30:00,
2013-02-14 14:35:00,74.0,58.8,29.97,NE,54,8.1,8.1,59,0.00,SCT,,0.00,360.0,WeatherDisplay:10.37,2013-02-15 00:35:00,
2013-02-14 14:40:00,73.9,59.1,29.97,East,92,13.8,13.8,60,0.00,SCT,,0.00,360.0,WeatherDisplay:10.37,2013-02-15 00:40:00,
2013-02-14 14:45:00,73.5,58.8,29.97,East,89,13.8,13.8,60,0.00,CLR,,0.00,582.0,WeatherDisplay:10.37,2013-02-15 00:45:00,
2013-02-14 14:50:00,73.3,58.6,29.97,East,92,7.0,7.0,60,0.00,BKN,,0.00,315.0,WeatherDisplay:10.37,2013-02-15 00:50:00,
2013-02-14 14:55:00,73.1,58.8,29.97,ESE,102,8.1,8.1,61,0.00,BKN,,0.00,315.0,WeatherDisplay:10.37,2013-02-15 00:55:00,
2013-02-14 15:00:00,73.1,59.3,29.97,East,82,4.6,4.6,62,0.00,CLR,,0.00,981.0,WeatherDisplay:10.37,2013-02-15 01:00:00,
2013-02-14 15:05:00,73.4,58.7,29.96,East,89,9.2,9.2,60,0.00,SCT,,0.00,348.0,WeatherDisplay:10.37,2013-02-15 01:05:00,
2013-02-14 15:10:00,73.4,59.1,29.96,ESE,105,4.6,4.6,61,0.00,CLR,,0.00,935.0,WeatherDisplay:10.37,2013-02-15 01:10:00,
2013-02-14 15:15:00,73.2,58.5,29.96,East,92,5.8,5.8,60,0.00,OVC,,0.00,158.0,WeatherDisplay:10.37,2013-02-15 01:15:00,
2013-02-14 15:20:00,73.0,58.8,29.96,East,82,6.0,6.0,61,0.00,CLR,,0.00,867.0,WeatherDisplay:10.37,2013-02-15 01:20:00,
2013-02-14 15:25:00,73.3,59.0,29.96,ENE,58,7.0,7.0,61,0.00,BKN,,0.00,339.0,WeatherDisplay:10.37,2013-02-15 01:25:00,
2013-02-14 15:30:00,73.1,58.8,29.96,NNE,24,5.8,5.8,61,0.00,BKN,,0.00,225.0,WeatherDisplay:10.37,2013-02-15 01:30:00,
2013-02-14 15:35:00,72.6,58.8,29.97,NE,46,4.6,4.6,62,0.00,OVC,,0.00,125.0,WeatherDisplay:10.37,2013-02-15 01:35:00,
2013-02-14 15:40:00,72.3,59.0,29.96,North,360,5.8,5.8,63,0.00,CLR,,0.00,691.0,WeatherDisplay:10.37,2013-02-15 01:40:00,
2013-02-14 15:45:00,72.4,59.1,29.96,NE,53,5.8,5.8,63,0.00,CLR,,0.00,719.0,WeatherDisplay:10.37,2013-02-15 01:45:00,
2013-02-14 15:50:00,72.4,59.1,29.96,East,82,6.9,6.9,63,0.00,CLR,,0.00,401.0,WeatherDisplay:10.37,2013-02-15 01:50:00,
2013-02-14 15:55:00,72.2,58.9,29.96,ESE,103,9.2,9.2,63,0.00,SCT,,0.00,195.0,WeatherDisplay:10.37,2013-02-15 01:55:00,
2013-02-14 16:00:00,71.9,58.6,29.97,ENE,63,9.2,9.2,63,0.00,BKN,,0.00,172.0,WeatherDisplay:10.37,2013-02-15 02:00:00,
2013-02-14 16:05:00,71.8,58.5,29.96,NE,54,10.4,10.4,63,0.00,SCT,,0.00,237.0,WeatherDisplay:10.37,2013-02-15 02:05:00,
2013-02-14 16:10:00,71.9,58.2,29.96,ENE,63,9.2,9.2,62,0.00,CLR,,0.00,258.0,WeatherDisplay:10.37,2013-02-15 02:10:00,
2013-02-14 16:15:00,71.8,58.1,29.96,East,84,8.1,8.1,62,0.00,CLR,,0.00,520.0,WeatherDisplay:10.37,2013-02-15 02:15:00,
2013-02-14 16:20:00,71.7,58.0,29.96,ENE,67,11.5,11.5,62,0.00,CLR,,0.00,550.0,WeatherDisplay:10.37,2013-02-15 02:20:00,
2013-02-14 16:25:00,71.6,58.3,29.96,NE,56,9.2,9.2,63,0.00,CLR,,0.00,116.0,WeatherDisplay:10.37,2013-02-15 02:25:00,
2013-02-14 16:30:00,71.4,58.1,29.97,NNE,22,11.0,11.0,63,0.00,CLR,,0.00,417.0,WeatherDisplay:10.37,2013-02-15 02:30:00,
2013-02-14 16:35:00,71.3,58.1,29.97,ENE,65,8.1,8.1,63,0.00,CLR,,0.00,127.0,WeatherDisplay:10.37,2013-02-15 02:35:00,
2013-02-14 16:40:00,71.0,58.2,29.97,NE,51,9.2,9.2,64,0.00,BKN,,0.00,114.0,WeatherDisplay:10.37,2013-02-15 02:40:00,
2013-02-14 16:45:00,70.7,58.8,29.97,ENE,74,8.1,8.1,66,0.00,CLR,,0.00,483.0,WeatherDisplay:10.37,2013-02-15 02:45:00,
2013-02-14 16:50:00,70.7,59.2,29.97,ENE,57,4.6,4.6,67,0.00,BKN,,0.00,134.0,WeatherDisplay:10.37,2013-02-15 02:50:00,
2013-02-14 16:55:00,70.5,58.6,29.97,NNW,341,9.2,9.2,66,0.00,BKN,,0.00,100.0,WeatherDisplay:10.37,2013-02-15 02:55:00,
2013-02-14 17:00:00,70.0,59.0,29.97,ENE,59,6.9,6.9,68,0.00,CLR,,0.00,374.0,WeatherDisplay:10.37,2013-02-15 03:00:00,
2013-02-14 17:05:00,70.1,59.0,29.97,NNE,19,8.1,8.1,68,0.00,CLR,,0.00,320.0,WeatherDisplay:10.37,2013-02-15 03:05:00,
2013-02-14 17:10:00,70.2,58.7,29.97,ENE,76,9.2,9.2,67,0.00,CLR,,0.00,357.0,WeatherDisplay:10.37,2013-02-15 03:10:00,
2013-02-14 17:15:00,70.3,58.8,29.97,ENE,57,6.9,6.9,67,0.00,FEW,,0.00,165.0,WeatherDisplay:10.37,2013-02-15 03:15:00,
2013-02-14 17:20:00,69.9,58.9,29.97,ENE,63,9.2,9.2,68,0.00,CLR,,0.00,44.0,WeatherDisplay:10.37,2013-02-15 03:20:00,
2013-02-14 17:25:00,69.2,59.0,29.98,NNE,22,11.5,11.5,70,0.00,BKN,,0.00,60.0,WeatherDisplay:10.37,2013-02-15 03:25:00,
2013-02-14 17:30:00,68.8,59.0,29.98,ENE,67,9.2,9.2,71,0.00,CLR,,0.00,267.0,WeatherDisplay:10.37,2013-02-15 03:30:00,
2013-02-14 17:35:00,68.6,58.8,29.98,ENE,69,11.5,11.5,71,0.00,CLR,,0.00,206.0,WeatherDisplay:10.37,2013-02-15 03:35:00,
2013-02-14 17:40:00,68.7,59.3,29.98,NNE,28,9.2,9.2,72,0.00,BKN,,0.00,39.0,WeatherDisplay:10.37,2013-02-15 03:40:00,
2013-02-14 17:45:00,68.4,59.0,29.98,ENE,67,10.4,10.4,72,0.00,BKN,,0.00,39.0,WeatherDisplay:10.37,2013-02-15 03:45:00,
2013-02-14 17:50:00,68.1,58.7,29.98,NNE,17,9.2,9.2,72,0.00,BKN,,0.00,77.0,WeatherDisplay:10.37,2013-02-15 03:50:00,
2013-02-14 17:55:00,67.8,58.8,29.98,ENE,68,10.4,10.4,73,0.00,FEW,,0.00,53.0,WeatherDisplay:10.37,2013-02-15 03:55:00,
2013-02-14 18:00:00,67.7,59.1,29.98,NNE,25,8.1,8.1,74,0.00,CLR,,0.00,63.0,WeatherDisplay:10.37,2013-02-15 04:00:00,
2013-02-14 18:05:00,67.6,59.0,29.98,East,79,4.6,4.6,74,0.00,FEW,,0.00,37.0,WeatherDisplay:10.37,2013-02-15 04:05:00,
2013-02-14 18:10:00,67.5,58.9,29.98,ENE,69,6.9,6.9,74,0.00,SCT,,0.00,25.0,WeatherDisplay:10.37,2013-02-15 04:10:00,
2013-02-14 18:15:00,67.3,59.1,29.98,NE,51,6.9,6.9,75,0.00,BKN,,0.00,18.0,WeatherDisplay:10.37,2013-02-15 04:15:00,
2013-02-14 18:20:00,67.1,58.9,29.98,NE,43,8.1,8.1,75,0.00,SCT,,0.00,11.0,WeatherDisplay:10.37,2013-02-15 04:20:00,
2013-02-14 18:25:00,66.8,58.6,29.98,NNE,16,8.1,8.1,75,0.00,CLR,,0.00,9.0,WeatherDisplay:10.37,2013-02-15 04:25:00,
2013-02-14 18:30:00,66.6,58.8,29.98,NE,37,6.9,6.9,76,0.00,CLR,,0.00,5.0,WeatherDisplay:10.37,2013-02-15 04:30:00,
2013-02-14 18:35:00,66.4,58.6,29.98,NE,53,4.6,4.6,76,0.00,CLR,,0.00,0.0,WeatherDisplay:10.37,2013-02-15 04:35:00,
2013-02-14 18:40:00,66.1,58.3,29.98,NE,50,4.6,4.6,76,0.00,CLR,,0.00,0.0,WeatherDisplay:10.37,2013-02-15 04:40:00,
2013-02-14 18:45:00,65.9,58.5,29.98,NE,48,5.8,5.8,77,0.00,CLR,,0.00,0.0,WeatherDisplay:10.37,2013-02-15 04:45:00,
2013-02-14 18:50:00,65.6,58.2,29.98,NE,49,3.5,3.5,77,0.00,CLR,,0.00,0.0,WeatherDisplay:10.37,2013-02-15 04:50:00,
2013-02-14 18:55:00,65.5,58.1,29.98,NE,41,5.0,5.0,77,0.00,CLR,,0.00,0.0,WeatherDisplay:10.37,2013-02-15 04:55:00,
2013-02-14 19:00:00,65.4,58.0,29.98,NE,53,9.2,9.2,77,0.00,CLR,,0.00,0.0,WeatherDisplay:10.37,2013-02-15 05:00:00,
2013-02-14 19:05:00,65.3,58.3,29.98,NE,52,8.1,8.1,78,0.00,CLR,,0.00,0.0,WeatherDisplay:10.37,2013-02-15 05:05:00,
2013-02-14 19:10:00,65.2,58.2,29.98,ENE,57,9.2,9.2,78,0.00,CLR,,0.00,0.0,WeatherDisplay:10.37,2013-02-15 05:10:00,
2013-02-14 19:15:00,65.3,58.3,29.98,ENE,59,10.0,10.0,78,0.00,CLR,,0.00,0.0,WeatherDisplay:10.37,2013-02-15 05:15:00,
2013-02-14 19:20:00,65.3,58.3,29.98,North,5,9.2,9.2,78,0.00,CLR,,0.00,0.0,WeatherDisplay:10.37,2013-02-15 05:20:00,
2013-02-14 19:25:00,65.3,58.3,29.98,ENE,74,8.1,8.1,78,0.00,CLR,,0.00,0.0,WeatherDisplay:10.37,2013-02-15 05:25:00,
2013-02-14 19:30:00,65.2,58.5,29.98,NE,46,5.8,5.8,79,0.00,CLR,,0.00,0.0,WeatherDisplay:10.37,2013-02-15 05:30:00,
2013-02-14 19:35:00,65.1,58.1,29.98,ENE,62,8.1,8.1,78,0.00,CLR,,0.00,0.0,WeatherDisplay:10.37,2013-02-15 05:35:00,
2013-02-14 19:40:00,65.0,58.0,29.99,NE,51,5.0,5.0,78,0.00,CLR,,0.00,0.0,WeatherDisplay:10.37,2013-02-15 05:40:00,
2013-02-14 19:45:00,64.9,58.2,29.98,ENE,74,8.1,8.1,79,0.00,CLR,,0.00,0.0,WeatherDisplay:10.37,2013-02-15 05:45:00,
2013-02-14 19:50:00,64.7,58.0,29.99,NE,49,10.4,10.4,79,0.00,CLR,,0.00,0.0,WeatherDisplay:10.37,2013-02-15 05:50:00,
2013-02-14 19:55:00,64.6,57.9,29.99,NNE,15,6.9,6.9,79,0.00,CLR,,0.00,0.0,WeatherDisplay:10.37,2013-02-15 05:55:00,
2013-02-14 20:00:00,64.5,57.8,29.99,NE,41,10.4,10.4,79,0.00,CLR,,0.00,0.0,WeatherDisplay:10.37,2013-02-15 06:00:00,
2013-02-14 20:05:00,64.6,57.9,29.99,ENE,64,5.8,5.8,79,0.00,CLR,,0.00,0.0,WeatherDisplay:10.37,2013-02-15 06:05:00,
2013-02-14 20:10:00,64.6,58.3,29.99,NNE,25,11.5,11.5,80,0.00,CLR,,0.00,0.0,WeatherDisplay:10.37,2013-02-15 06:10:00,
2013-02-14 20:15:00,64.6,58.3,29.99,NE,38,8.1,8.1,80,0.00,CLR,,0.00,0.0,WeatherDisplay:10.37,2013-02-15 06:15:00,
2013-02-14 20:20:00,64.6,58.3,30.00,North,355,8.1,8.1,80,0.00,CLR,,0.00,0.0,WeatherDisplay:10.37,2013-02-15 06:20:00,
2013-02-14 20:25:00,64.6,58.3,30.00,NE,43,8.1,8.1,80,0.00,CLR,,0.00,0.0,WeatherDisplay:10.37,2013-02-15 06:25:00,
2013-02-14 20:30:00,64.6,58.3,30.00,NNE,12,9.2,9.2,80,0.00,CLR,,0.00,0.0,WeatherDisplay:10.37,2013-02-15 06:30:00,
2013-02-14 20:35:00,64.6,57.9,30.00,NE,47,9.2,9.2,79,0.00,CLR,,0.00,0.0,WeatherDisplay:10.37,2013-02-15 06:35:00,
2013-02-14 20:40:00,64.6,57.9,30.00,NE,39,8.1,8.1,79,0.00,CLR,,0.00,0.0,WeatherDisplay:10.37,2013-02-15 06:40:00,
2013-02-14 20:45:00,64.6,57.9,30.00,ENE,60,6.9,6.9,79,0.00,CLR,,0.00,0.0,WeatherDisplay:10.37,2013-02-15 06:45:00,
2013-02-14 20:50:00,64.6,57.9,30.00,NE,47,6.9,6.9,79,0.00,CLR,,0.00,0.0,WeatherDisplay:10.37,2013-02-15 06:50:00,
2013-02-14 20:55:00,64.6,57.9,30.01,ENE,57,5.8,5.8,79,0.00,CLR,,0.00,0.0,WeatherDisplay:10.37,2013-02-15 06:55:00,
2013-02-14 21:00:00,64.7,58.0,30.00,NE,35,9.2,9.2,79,0.00,CLR,,0.00,0.0,WeatherDisplay:10.37,2013-02-15 07:00:00,
2013-02-14 21:05:00,64.8,58.1,30.00,NNE,25,8.1,8.1,79,0.00,CLR,,0.00,0.0,WeatherDisplay:10.37,2013-02-15 07:05:00,
2013-02-14 21:10:00,64.8,58.1,30.01,ENE,57,9.2,9.2,79,0.00,CLR,,0.00,0.0,WeatherDisplay:10.37,2013-02-15 07:10:00,
2013-02-14 21:15:00,64.8,58.1,30.01,ENE,66,6.9,6.9,79,0.00,CLR,,0.00,0.0,WeatherDisplay:10.37,2013-02-15 07:15:00,
2013-02-14 21:20:00,64.8,58.1,30.01,NE,35,9.2,9.2,79,0.00,CLR,,0.00,0.0,WeatherDisplay:10.37,2013-02-15 07:20:00,
2013-02-14 21:25:00,64.9,58.2,30.01,NE,47,9.2,9.2,79,0.00,CLR,,0.00,0.0,WeatherDisplay:10.37,2013-02-15 07:25:00,
2013-02-14 21:30:00,64.9,58.2,30.01,NNW,333,4.6,4.6,79,0.00,CLR,,0.00,0.0,WeatherDisplay:10.37,2013-02-15 07:30:00,
2013-02-14 21:35:00,64.9,58.2,30.01,NNE,31,8.1,8.1,79,0.00,CLR,,0.00,0.0,WeatherDisplay:10.37,2013-02-15 07:35:00,
2013-02-14 21:40:00,65.0,58.3,30.01,ENE,57,4.6,4.6,79,0.00,CLR,,0.00,0.0,WeatherDisplay:10.37,2013-02-15 07:40:00,
2013-02-14 21:45:00,65.0,58.3,30.02,North,5,6.9,6.9,79,0.00,CLR,,0.00,0.0,WeatherDisplay:10.37,2013-02-15 07:45:00,
2013-02-14 21:50:00,65.1,58.4,30.01,NE,49,9.2,9.2,79,0.00,CLR,,0.00,0.0,WeatherDisplay:10.37,2013-02-15 07:50:00,
2013-02-14 21:55:00,65.0,58.3,30.02,ENE,59,7.0,7.0,79,0.00,CLR,,0.00,0.0,WeatherDisplay:10.37,2013-02-15 07:55:00,
2013-02-14 22:00:00,65.0,58.3,30.02,ENE,61,9.2,9.2,79,0.00,CLR,,0.00,0.0,WeatherDisplay:10.37,2013-02-15 08:00:00,
2013-02-14 22:05:00,65.0,58.3,30.01,ENE,59,9.2,9.2,79,0.00,CLR,,0.00,0.0,WeatherDisplay:10.37,2013-02-15 08:05:00,
2013-02-14 22:10:00,65.1,58.4,30.02,ENE,74,4.6,4.6,79,0.00,CLR,,0.00,0.0,WeatherDisplay:10.37,2013-02-15 08:10:00,
2013-02-14 22:15:00,65.2,58.2,30.02,NNE,16,8.1,8.1,78,0.00,CLR,,0.00,0.0,WeatherDisplay:10.37,2013-02-15 08:15:00,
2013-02-14 22:20:00,65.2,58.2,30.02,ENE,63,8.0,8.0,78,0.00,CLR,,0.00,0.0,WeatherDisplay:10.37,2013-02-15 08:20:00,
2013-02-14 22:25:00,65.2,58.5,30.01,NNE,17,7.0,7.0,79,0.00,CLR,,0.00,0.0,WeatherDisplay:10.37,2013-02-15 08:25:00,
2013-02-14 22:30:00,65.1,58.4,30.01,East,84,8.1,8.1,79,0.00,CLR,,0.00,0.0,WeatherDisplay:10.37,2013-02-15 08:30:00,
2013-02-14 22:35:00,65.0,58.3,30.02,NE,56,10.4,10.4,79,0.00,CLR,,0.00,0.0,WeatherDisplay:10.37,2013-02-15 08:35:00,
2013-02-14 22:40:00,64.9,58.2,30.02,East,96,5.0,5.0,79,0.00,CLR,,0.00,0.0,WeatherDisplay:10.37,2013-02-15 08:40:00,
2013-02-14 22:45:00,64.9,58.2,30.02,NE,38,8.1,8.1,79,0.00,CLR,,0.00,0.0,WeatherDisplay:10.37,2013-02-15 08:45:00,
2013-02-14 22:50:00,65.0,58.3,30.02,ENE,66,8.0,8.0,79,0.00,CLR,,0.00,0.0,WeatherDisplay:10.37,2013-02-15 08:50:00,
2013-02-14 22:55:00,65.0,58.3,30.02,NE,51,8.1,8.1,79,0.00,CLR,,0.00,0.0,WeatherDisplay:10.37,2013-02-15 08:55:00,
2013-02-14 23:00:00,65.0,58.7,30.02,NE,44,9.2,9.2,80,0.00,CLR,,0.00,0.0,WeatherDisplay:10.37,2013-02-15 09:00:00,
2013-02-14 23:05:00,65.0,58.7,30.02,ENE,77,6.9,6.9,80,0.00,CLR,,0.00,0.0,WeatherDisplay:10.37,2013-02-15 09:05:00,
2013-02-14 23:10:00,64.9,58.6,30.02,NNE,22,6.9,6.9,80,0.00,CLR,,0.00,0.0,WeatherDisplay:10.37,2013-02-15 09:10:00,
2013-02-14 23:15:00,64.9,58.9,30.02,North,355,7.0,7.0,81,0.00,CLR,,0.00,0.0,WeatherDisplay:10.37,2013-02-15 09:15:00,
2013-02-14 23:20:00,64.9,58.9,30.02,ENE,59,9.2,9.2,81,0.00,CLR,,0.00,0.0,WeatherDisplay:10.37,2013-02-15 09:20:00,
2013-02-14 23:25:00,64.9,58.9,30.02,ENE,61,8.1,8.1,81,0.00,CLR,,0.00,0.0,WeatherDisplay:10.37,2013-02-15 09:25:00,
2013-02-14 23:30:00,64.8,58.8,30.02,NE,37,10.4,10.4,81,0.00,CLR,,0.00,0.0,WeatherDisplay:10.37,2013-02-15 09:30:00,
2013-02-14 23:35:00,64.8,58.8,30.02,ENE,66,11.5,11.5,81,0.00,CLR,,0.00,0.0,WeatherDisplay:10.37,2013-02-15 09:35:00,
2013-02-14 23:40:00,64.8,58.8,30.02,East,84,4.6,4.6,81,0.00,CLR,,0.00,0.0,WeatherDisplay:10.37,2013-02-15 09:40:00,
2013-02-14 23:45:00,64.7,58.7,30.01,NE,40,8.1,8.1,81,0.00,CLR,,0.00,0.0,WeatherDisplay:10.37,2013-02-15 09:45:00,
2013-02-14 23:50:00,64.7,58.7,30.01,NNE,32,8.1,8.1,81,0.00,CLR,,0.00,0.0,WeatherDisplay:10.37,2013-02-15 09:50:00,
2013-02-14 23:55:00,64.8,58.8,30.02,ENE,75,6.9,6.9,81,0.00,CLR,,0.00,0.0,WeatherDisplay:10.37,2013-02-15 09:55:00,